createdAt,value
2023-05-10T00:00:29.593Z,14.54
2023-05-10T00:01:32.883Z,14.48
2023-05-10T00:02:36.626Z,13.25
2023-05-10T00:03:40.280Z,14.42
2023-05-10T00:04:44.611Z,15.90
2023-05-10T00:05:48.056Z,16.53
2023-05-10T00:06:51.426Z,17.75
2023-05-10T00:07:55.356Z,16.48
2023-05-10T00:09:02.866Z,15.80
2023-05-10T00:10:08.092Z,14.02
2023-05-10T00:11:11.965Z,14.51
2023-05-10T00:12:15.868Z,15.48
2023-05-10T00:13:19.237Z,15.10
2023-05-10T00:14:22.717Z,15.53
2023-05-10T00:15:25.964Z,17.18
2023-05-10T00:16:29.341Z,16.64
2023-05-10T00:17:32.619Z,17.17
2023-05-10T00:18:36.033Z,17.71
2023-05-10T00:19:39.414Z,18.95
2023-05-10T00:20:42.690Z,16.89
2023-05-10T00:21:45.923Z,17.88
2023-05-10T00:22:49.216Z,16.34
2023-05-10T00:23:52.706Z,18.13
2023-05-10T00:24:56.127Z,17.22
2023-05-10T00:25:59.578Z,15.23
2023-05-10T00:27:03.007Z,19.36
2023-05-10T00:28:06.517Z,18.10
2023-05-10T00:29:09.950Z,17.93
2023-05-10T00:30:13.486Z,16.13
2023-05-10T00:31:16.891Z,17.26
2023-05-10T00:32:20.157Z,15.67
2023-05-10T00:33:23.402Z,15.00
2023-05-10T00:34:26.676Z,14.94
2023-05-10T00:35:29.925Z,15.57
2023-05-10T00:36:33.342Z,15.03
2023-05-10T00:37:36.706Z,15.41
2023-05-10T00:38:40.165Z,16.21
2023-05-10T00:39:43.474Z,16.16
2023-05-10T00:40:48.129Z,16.90
2023-05-10T00:41:59.485Z,16.52
2023-05-10T00:43:03.216Z,13.42
2023-05-10T00:44:06.550Z,16.46
2023-05-10T00:45:10.452Z,14.82
2023-05-10T00:46:16.154Z,14.00
2023-05-10T00:47:19.982Z,15.19
2023-05-10T00:48:24.389Z,17.09
2023-05-10T00:49:28.407Z,16.12
2023-05-10T00:50:33.065Z,17.85
2023-05-10T00:51:36.881Z,13.22
2023-05-10T00:52:40.250Z,16.01
2023-05-10T00:53:43.577Z,15.06
2023-05-10T00:54:46.978Z,14.90
2023-05-10T00:55:50.754Z,16.46
2023-05-10T00:56:54.174Z,16.88
2023-05-10T00:57:57.926Z,17.51
2023-05-10T00:59:02.194Z,16.39
2023-05-10T01:00:06.690Z,15.51
2023-05-10T01:01:12.085Z,14.92
2023-05-10T01:02:15.555Z,14.02
2023-05-10T01:03:19.600Z,18.11
2023-05-10T01:04:27.202Z,17.44
2023-05-10T01:05:30.593Z,17.01
2023-05-10T01:06:34.659Z,16.80
2023-05-10T01:07:37.984Z,18.30
2023-05-10T01:08:41.954Z,17.21
2023-05-10T01:09:45.429Z,16.96
2023-05-10T01:10:50.830Z,17.71
2023-05-10T01:11:55.939Z,15.89
2023-05-10T01:13:02.212Z,16.28
2023-05-10T01:14:06.368Z,17.67
2023-05-10T01:15:12.817Z,16.69
2023-05-10T01:16:16.266Z,17.78
2023-05-10T01:17:19.952Z,17.63
2023-05-10T01:18:23.920Z,15.60
2023-05-10T01:19:30.077Z,14.35
2023-05-10T01:20:44.059Z,15.63
2023-05-10T01:21:55.085Z,18.61
2023-05-10T01:23:05.546Z,16.04
2023-05-10T01:24:26.636Z,19.05
2023-05-10T01:26:08.092Z,16.19
2023-05-10T01:27:57.611Z,17.31
2023-05-10T01:29:16.676Z,19.40
2023-05-10T01:31:04.852Z,18.62
2023-05-10T01:32:26.657Z,23.66
2023-05-10T01:33:45.611Z,20.86
2023-05-10T01:35:03.279Z,16.63
2023-05-10T01:36:08.897Z,16.71
2023-05-10T01:37:21.652Z,17.51
2023-05-10T01:38:52.423Z,19.72
2023-05-10T01:40:47.290Z,18.15
2023-05-10T01:41:59.152Z,19.11
2023-05-10T01:43:06.316Z,17.96
2023-05-10T01:44:33.642Z,17.71
2023-05-10T01:46:12.114Z,20.61
2023-05-10T01:47:29.085Z,18.22
2023-05-10T01:48:34.629Z,17.79
2023-05-10T01:49:47.985Z,18.52
2023-05-10T01:50:53.964Z,17.28
2023-05-10T01:52:05.258Z,19.42
2023-05-10T01:53:12.329Z,19.07
2023-05-10T01:54:21.299Z,19.38
2023-05-10T01:55:30.431Z,20.14
2023-05-10T01:56:37.095Z,21.92
2023-05-10T01:57:44.350Z,19.20
2023-05-10T01:58:51.807Z,18.81
2023-05-10T01:59:58.122Z,18.74
2023-05-10T02:01:06.383Z,19.92
2023-05-10T02:02:13.523Z,18.96
2023-05-10T02:03:20.620Z,20.38
2023-05-10T02:04:26.155Z,22.64
2023-05-10T02:05:32.944Z,19.60
2023-05-10T02:06:37.285Z,20.20
2023-05-10T02:07:41.543Z,16.37
2023-05-10T02:08:47.743Z,19.53
2023-05-10T02:09:52.687Z,19.72
2023-05-10T02:11:00.463Z,61.17
2023-05-10T02:12:07.867Z,37.11
2023-05-10T02:13:13.319Z,27.19
2023-05-10T02:14:19.558Z,21.72
2023-05-10T02:15:25.505Z,22.73
2023-05-10T02:16:32.487Z,19.61
2023-05-10T02:17:39.472Z,21.42
2023-05-10T02:18:43.743Z,21.86
2023-05-10T02:19:49.660Z,22.32
2023-05-10T02:20:55.730Z,22.72
2023-05-10T02:22:00.752Z,21.70
2023-05-10T02:23:06.504Z,24.03
2023-05-10T02:24:13.186Z,20.96
2023-05-10T02:25:17.812Z,20.82
2023-05-10T02:26:25.418Z,22.76
2023-05-10T02:27:31.021Z,20.74
2023-05-10T02:28:37.593Z,19.87
2023-05-10T02:29:41.897Z,21.03
2023-05-10T02:30:45.403Z,22.38
2023-05-10T02:31:49.984Z,21.46
2023-05-10T02:32:54.825Z,26.98
2023-05-10T02:34:00.773Z,29.10
2023-05-10T02:35:06.320Z,25.87
2023-05-10T02:36:12.102Z,27.76
2023-05-10T02:37:18.347Z,24.44
2023-05-10T02:38:26.128Z,23.32
2023-05-10T02:39:33.015Z,24.54
2023-05-10T02:40:39.653Z,23.71
2023-05-10T02:41:45.239Z,24.62
2023-05-10T02:42:51.567Z,21.08
2023-05-10T02:44:01.640Z,21.97
2023-05-10T02:45:12.857Z,20.72
2023-05-10T02:46:16.241Z,22.05
2023-05-10T02:47:20.691Z,21.05
2023-05-10T02:48:24.962Z,19.65
2023-05-10T02:49:28.470Z,20.71
2023-05-10T02:50:35.755Z,19.56
2023-05-10T02:51:46.814Z,23.17
2023-05-10T02:52:54.211Z,21.57
2023-05-10T02:54:02.242Z,20.13
2023-05-10T02:55:07.932Z,21.09
2023-05-10T02:56:27.489Z,20.76
2023-05-10T02:57:35.957Z,19.27
2023-05-10T02:58:39.284Z,21.38
2023-05-10T02:59:44.523Z,18.29
2023-05-10T03:00:48.242Z,20.09
2023-05-10T03:01:51.550Z,21.85
2023-05-10T03:02:55.601Z,21.71
2023-05-10T03:03:59.399Z,18.90
2023-05-10T03:05:02.876Z,21.58
2023-05-10T03:06:06.575Z,21.34
2023-05-10T03:07:10.349Z,21.17
2023-05-10T03:08:14.417Z,21.90
2023-05-10T03:09:17.733Z,21.16
2023-05-10T03:10:28.407Z,24.20
2023-05-10T03:11:41.027Z,21.07
2023-05-10T03:12:54.291Z,22.84
2023-05-10T03:14:33.487Z,21.33
2023-05-10T03:15:51.264Z,24.12
2023-05-10T03:17:25.651Z,21.63
2023-05-10T03:19:03.688Z,19.96
2023-05-10T03:20:13.499Z,17.93
2023-05-10T03:21:20.842Z,20.92
2023-05-10T03:22:34.236Z,19.74
2023-05-10T03:23:42.757Z,21.17
2023-05-10T03:24:48.617Z,22.18
2023-05-10T03:25:53.962Z,17.47
2023-05-10T03:27:01.281Z,20.36
2023-05-10T03:28:07.235Z,21.73
2023-05-10T03:29:15.586Z,21.50
2023-05-10T03:30:21.330Z,21.40
2023-05-10T03:31:24.653Z,21.96
2023-05-10T03:32:28.998Z,21.51
2023-05-10T03:33:32.507Z,21.69
2023-05-10T03:34:44.898Z,25.27
2023-05-10T03:35:48.348Z,25.21
2023-05-10T03:36:52.694Z,24.09
2023-05-10T03:37:56.079Z,24.31
2023-05-10T03:38:59.431Z,24.35
2023-05-10T03:40:04.475Z,26.24
2023-05-10T03:41:10.471Z,22.42
2023-05-10T03:42:13.727Z,24.60
2023-05-10T03:43:17.132Z,24.65
2023-05-10T03:44:20.462Z,21.07
2023-05-10T03:45:23.923Z,22.25
2023-05-10T03:46:27.145Z,21.89
2023-05-10T03:47:31.530Z,24.86
2023-05-10T03:48:35.707Z,23.75
2023-05-10T03:49:39.176Z,21.25
2023-05-10T03:50:42.450Z,21.78
2023-05-10T03:51:45.818Z,23.95
2023-05-10T03:52:49.129Z,22.80
2023-05-10T03:53:53.627Z,20.95
2023-05-10T03:54:57.042Z,20.91
2023-05-10T03:56:01.137Z,20.75
2023-05-10T03:57:04.679Z,20.63
2023-05-10T03:58:08.451Z,22.16
2023-05-10T03:59:11.875Z,22.83
2023-05-10T04:00:16.219Z,18.84
2023-05-10T04:01:19.566Z,20.24
2023-05-10T04:02:23.651Z,22.18
2023-05-10T04:03:28.124Z,20.97
2023-05-10T04:04:31.448Z,21.80
2023-05-10T04:05:35.249Z,22.32
2023-05-10T04:06:40.033Z,22.28
2023-05-10T04:07:43.532Z,23.61
2023-05-10T04:08:47.547Z,23.28
2023-05-10T04:09:50.860Z,26.30
2023-05-10T04:10:54.083Z,25.78
2023-05-10T04:11:57.662Z,25.14
2023-05-10T04:13:00.969Z,26.57
2023-05-10T04:14:04.229Z,27.89
2023-05-10T04:15:08.522Z,29.74
2023-05-10T04:16:11.810Z,27.55
2023-05-10T04:17:15.298Z,28.37
2023-05-10T04:18:18.836Z,27.20
2023-05-10T04:19:22.009Z,26.14
2023-05-10T04:20:25.368Z,28.26
2023-05-10T04:21:28.638Z,23.72
2023-05-10T04:22:32.146Z,28.42
2023-05-10T04:23:35.305Z,29.48
2023-05-10T04:24:38.484Z,28.06
2023-05-10T04:25:42.388Z,27.29
2023-05-10T04:26:45.675Z,27.78
2023-05-10T04:27:48.923Z,25.59
2023-05-10T04:28:52.068Z,26.74
2023-05-10T04:29:55.266Z,24.89
2023-05-10T04:31:06.318Z,23.16
2023-05-10T04:32:09.765Z,22.81
2023-05-10T04:33:13.068Z,22.31
2023-05-10T04:34:16.317Z,22.14
2023-05-10T04:35:19.605Z,22.44
2023-05-10T04:36:22.857Z,21.01
2023-05-10T04:37:26.124Z,21.48
2023-05-10T04:38:29.616Z,25.14
2023-05-10T04:39:32.912Z,24.91
2023-05-10T04:40:36.182Z,25.13
2023-05-10T04:41:40.218Z,24.70
2023-05-10T04:42:43.504Z,21.91
2023-05-10T04:43:46.800Z,21.30
2023-05-10T04:44:50.108Z,22.52
2023-05-10T04:45:53.428Z,22.28
2023-05-10T04:46:56.711Z,22.03
2023-05-10T04:48:00.174Z,20.13
2023-05-10T04:49:03.828Z,22.55
2023-05-10T04:50:08.096Z,18.36
2023-05-10T04:51:11.366Z,18.09
2023-05-10T04:52:15.369Z,21.12
2023-05-10T04:53:18.776Z,20.62
2023-05-10T04:54:22.084Z,20.48
2023-05-10T04:55:26.688Z,20.78
2023-05-10T04:56:30.120Z,20.66
2023-05-10T04:57:33.586Z,21.35
2023-05-10T04:58:36.786Z,21.67
2023-05-10T04:59:40.111Z,20.00
2023-05-10T05:00:44.111Z,22.75
2023-05-10T05:01:47.303Z,19.18
2023-05-10T05:02:50.987Z,19.44
2023-05-10T05:03:55.533Z,20.91
2023-05-10T05:04:59.619Z,21.00
2023-05-10T05:06:02.753Z,18.58
2023-05-10T05:07:06.529Z,18.62
2023-05-10T05:08:09.712Z,19.96
2023-05-10T05:09:12.918Z,18.87
2023-05-10T05:10:16.411Z,18.70
2023-05-10T05:11:19.930Z,19.31
2023-05-10T05:12:23.207Z,20.97
2023-05-10T05:13:26.616Z,18.49
2023-05-10T05:14:30.102Z,18.76
2023-05-10T05:15:33.582Z,17.86
2023-05-10T05:16:37.153Z,16.58
2023-05-10T05:17:40.422Z,15.52
2023-05-10T05:18:43.619Z,19.75
2023-05-10T05:19:46.910Z,19.19
2023-05-10T05:20:50.253Z,18.31
2023-05-10T05:21:53.429Z,17.98
2023-05-10T05:22:56.825Z,19.12
2023-05-10T05:24:00.223Z,19.49
2023-05-10T05:25:04.960Z,19.75
2023-05-10T05:26:08.162Z,21.36
2023-05-10T05:27:11.544Z,20.10
2023-05-10T05:28:14.762Z,21.26
2023-05-10T05:29:18.230Z,21.28
2023-05-10T05:30:21.671Z,20.20
2023-05-10T05:31:24.869Z,21.40
2023-05-10T05:32:28.167Z,19.57
2023-05-10T05:33:31.638Z,21.71
2023-05-10T05:34:35.305Z,23.15
2023-05-10T05:35:38.784Z,22.30
2023-05-10T05:36:41.968Z,22.99
2023-05-10T05:37:45.238Z,20.01
2023-05-10T05:38:48.372Z,23.34
2023-05-10T05:39:52.479Z,22.30
2023-05-10T05:40:55.645Z,21.53
2023-05-10T05:42:00.085Z,23.61
2023-05-10T05:43:03.317Z,20.40
2023-05-10T05:44:06.644Z,20.30
2023-05-10T05:45:14.580Z,20.06
2023-05-10T05:46:18.314Z,19.65
2023-05-10T05:47:21.621Z,21.57
2023-05-10T05:48:24.769Z,19.53
2023-05-10T05:49:27.937Z,21.73
2023-05-10T05:50:31.156Z,20.00
2023-05-10T05:51:34.344Z,19.86
2023-05-10T05:52:37.867Z,20.31
2023-05-10T05:53:41.103Z,18.36
2023-05-10T05:54:44.341Z,21.29
2023-05-10T05:55:58.902Z,19.67
2023-05-10T05:57:03.034Z,20.21
2023-05-10T05:58:06.250Z,21.68
2023-05-10T05:59:09.721Z,20.23
2023-05-10T06:00:13.348Z,18.68
2023-05-10T06:01:16.405Z,19.64
2023-05-10T06:02:19.694Z,23.91
2023-05-10T06:03:23.264Z,21.56
2023-05-10T06:04:26.713Z,23.61
2023-05-10T06:05:30.109Z,19.04
2023-05-10T06:06:33.939Z,18.23
2023-05-10T06:07:37.303Z,19.66
2023-05-10T06:08:40.466Z,19.79
2023-05-10T06:09:43.960Z,22.95
2023-05-10T06:10:47.198Z,22.93
2023-05-10T06:11:50.318Z,22.50
2023-05-10T06:12:54.506Z,20.89
2023-05-10T06:13:58.050Z,21.16
2023-05-10T06:15:01.322Z,22.48
2023-05-10T06:16:04.991Z,22.44
2023-05-10T06:17:08.633Z,20.28
2023-05-10T06:18:11.815Z,22.58
2023-05-10T06:19:15.382Z,19.61
2023-05-10T06:20:18.752Z,22.19
2023-05-10T06:21:22.099Z,18.13
2023-05-10T06:22:25.364Z,19.07
2023-05-10T06:23:28.839Z,20.60
2023-05-10T06:24:32.294Z,21.29
2023-05-10T06:25:35.567Z,20.89
2023-05-10T06:26:38.756Z,20.98
2023-05-10T06:27:42.060Z,20.15
2023-05-10T06:28:45.382Z,19.59
2023-05-10T06:29:50.544Z,21.78
2023-05-10T06:30:55.598Z,22.64
2023-05-10T06:31:58.778Z,22.63
2023-05-10T06:33:02.031Z,21.99
2023-05-10T06:34:05.260Z,23.10
2023-05-10T06:35:09.498Z,21.16
2023-05-10T06:36:12.901Z,21.35
2023-05-10T06:37:16.263Z,23.38
2023-05-10T06:38:19.525Z,23.26
2023-05-10T06:39:22.789Z,21.73
2023-05-10T06:40:25.929Z,22.33
2023-05-10T06:41:29.278Z,24.69
2023-05-10T06:42:32.535Z,23.55
2023-05-10T06:43:36.489Z,22.54
2023-05-10T06:44:39.723Z,20.70
2023-05-10T06:45:43.193Z,24.02
2023-05-10T06:46:46.437Z,21.34
2023-05-10T06:47:49.851Z,24.74
2023-05-10T06:48:53.243Z,25.29
2023-05-10T06:49:57.418Z,25.70
2023-05-10T06:51:00.676Z,26.40
2023-05-10T06:52:03.889Z,25.68
2023-05-10T06:53:07.222Z,26.99
2023-05-10T06:54:10.575Z,24.03
2023-05-10T06:55:14.321Z,26.89
2023-05-10T06:56:17.639Z,25.23
2023-05-10T06:57:31.169Z,27.73
2023-05-10T06:58:35.294Z,26.95
2023-05-10T06:59:38.504Z,26.41
2023-05-10T07:00:44.440Z,26.59
2023-05-10T07:01:47.725Z,26.83
2023-05-10T07:02:51.003Z,22.28
2023-05-10T07:03:54.235Z,22.43
2023-05-10T07:04:59.466Z,23.77
2023-05-10T07:06:05.477Z,25.04
2023-05-10T07:07:08.736Z,23.63
2023-05-10T07:08:12.093Z,21.90
2023-05-10T07:09:15.251Z,23.33
2023-05-10T07:10:19.361Z,21.21
2023-05-10T07:11:22.535Z,22.63
2023-05-10T07:12:26.660Z,23.77
2023-05-10T07:13:29.961Z,22.26
2023-05-10T07:14:33.190Z,21.12
2023-05-10T07:15:36.670Z,23.16
2023-05-10T07:16:40.054Z,20.68
2023-05-10T07:17:45.510Z,24.21
2023-05-10T07:18:49.125Z,20.26
2023-05-10T07:19:52.499Z,21.01
2023-05-10T07:20:55.823Z,19.56
2023-05-10T07:21:59.151Z,17.60
2023-05-10T07:23:02.389Z,19.47
2023-05-10T07:24:05.593Z,17.82
2023-05-10T07:25:09.759Z,18.51
2023-05-10T07:26:13.360Z,15.85
2023-05-10T07:27:16.580Z,16.72
2023-05-10T07:28:20.365Z,16.03
2023-05-10T07:29:23.558Z,17.04
2023-05-10T07:30:26.767Z,17.12
2023-05-10T07:31:30.125Z,15.75
2023-05-10T07:32:33.526Z,15.61
2023-05-10T07:33:36.999Z,16.04
2023-05-10T07:34:40.168Z,16.75
2023-05-10T07:35:44.091Z,16.87
2023-05-10T07:36:47.392Z,17.53
2023-05-10T07:37:50.547Z,18.23
2023-05-10T07:38:53.846Z,17.07
2023-05-10T07:39:57.793Z,16.71
2023-05-10T07:41:01.239Z,16.66
2023-05-10T07:42:04.656Z,16.72
2023-05-10T07:43:08.685Z,16.32
2023-05-10T07:44:11.956Z,15.74
2023-05-10T07:45:15.521Z,15.76
2023-05-10T07:46:19.121Z,15.88
2023-05-10T07:47:22.501Z,19.36
2023-05-10T07:48:25.765Z,15.99
2023-05-10T07:49:29.011Z,18.15
2023-05-10T07:50:32.370Z,16.11
2023-05-10T07:51:35.664Z,17.55
2023-05-10T07:52:39.044Z,17.14
2023-05-10T07:53:42.468Z,17.35
2023-05-10T07:54:46.328Z,17.08
2023-05-10T07:55:53.505Z,15.81
2023-05-10T07:56:56.745Z,17.42
2023-05-10T07:58:02.676Z,18.09
2023-05-10T07:59:09.235Z,16.10
2023-05-10T08:00:19.993Z,17.35
2023-05-10T08:01:23.606Z,16.95
2023-05-10T08:02:27.084Z,17.97
2023-05-10T08:03:30.621Z,18.63
2023-05-10T08:04:34.057Z,15.95
2023-05-10T08:05:37.477Z,17.61
2023-05-10T08:06:41.979Z,17.05
2023-05-10T08:07:45.374Z,16.17
2023-05-10T08:08:52.004Z,14.58
2023-05-10T08:09:55.228Z,17.65
2023-05-10T08:10:58.407Z,15.44
2023-05-10T08:12:01.759Z,16.47
2023-05-10T08:13:05.051Z,17.59
2023-05-10T08:14:08.479Z,17.78
2023-05-10T08:15:12.111Z,17.93
2023-05-10T08:16:15.403Z,15.79
2023-05-10T08:17:19.930Z,16.43
2023-05-10T08:18:23.837Z,15.84
2023-05-10T08:19:26.993Z,18.02
2023-05-10T08:20:30.221Z,16.97
2023-05-10T08:21:33.552Z,18.75
2023-05-10T08:22:37.965Z,19.04
2023-05-10T08:23:41.419Z,14.36
2023-05-10T08:24:44.767Z,17.21
2023-05-10T08:25:49.234Z,19.11
2023-05-10T08:26:52.564Z,17.99
2023-05-10T08:27:55.837Z,18.88
2023-05-10T08:28:59.086Z,21.23
2023-05-10T08:30:02.404Z,19.46
2023-05-10T08:31:06.761Z,17.85
2023-05-10T08:32:10.140Z,20.01
2023-05-10T08:33:13.531Z,21.94
2023-05-10T08:34:16.832Z,19.68
2023-05-10T08:35:20.196Z,16.62
2023-05-10T08:36:25.838Z,18.29
2023-05-10T08:37:32.094Z,19.64
2023-05-10T08:38:35.362Z,19.66
2023-05-10T08:39:38.602Z,19.69
2023-05-10T08:40:44.914Z,19.82
2023-05-10T08:41:49.965Z,18.56
2023-05-10T08:43:04.467Z,17.52
2023-05-10T08:44:10.270Z,18.32
2023-05-10T08:45:16.321Z,21.48
2023-05-10T08:46:21.761Z,18.88
2023-05-10T08:47:27.080Z,18.74
2023-05-10T08:48:32.745Z,20.79
2023-05-10T08:49:36.438Z,21.25
2023-05-10T08:50:41.678Z,22.54
2023-05-10T08:51:52.718Z,20.29
2023-05-10T08:52:59.555Z,19.98
2023-05-10T08:54:05.591Z,19.98
2023-05-10T08:55:09.178Z,21.22
2023-05-10T08:56:13.255Z,18.77
2023-05-10T08:57:17.204Z,20.41
2023-05-10T08:58:22.009Z,20.79
2023-05-10T08:59:25.340Z,21.56
2023-05-10T09:00:30.044Z,21.17
2023-05-10T09:01:34.979Z,20.48
2023-05-10T09:02:39.279Z,17.30
2023-05-10T09:03:42.863Z,19.56
2023-05-10T09:04:46.282Z,19.85
2023-05-10T09:05:50.689Z,17.30
2023-05-10T09:06:54.446Z,19.90
2023-05-10T09:07:57.749Z,19.67
2023-05-10T09:09:02.267Z,19.40
2023-05-10T09:10:06.951Z,19.97
2023-05-10T09:11:11.601Z,19.98
2023-05-10T09:12:17.348Z,20.38
2023-05-10T09:13:21.551Z,23.72
2023-05-10T09:14:26.959Z,21.69
2023-05-10T09:15:30.253Z,20.72
2023-05-10T09:16:33.609Z,23.46
2023-05-10T09:17:38.945Z,22.79
2023-05-10T09:18:42.292Z,23.36
2023-05-10T09:19:47.149Z,22.77
2023-05-10T09:20:51.071Z,21.49
2023-05-10T09:21:54.426Z,22.80
2023-05-10T09:22:57.860Z,20.67
2023-05-10T09:24:06.718Z,19.30
2023-05-10T09:25:10.353Z,20.30
2023-05-10T09:26:13.630Z,20.71
2023-05-10T09:27:16.827Z,18.56
2023-05-10T09:28:20.002Z,19.95
2023-05-10T09:29:23.325Z,21.16
2023-05-10T09:30:30.069Z,17.90
2023-05-10T09:31:56.613Z,20.86
2023-05-10T09:33:01.723Z,18.79
2023-05-10T09:34:05.115Z,19.98
2023-05-10T09:35:16.817Z,18.35
2023-05-10T09:36:20.323Z,17.42
2023-05-10T09:37:31.652Z,21.72
2023-05-10T09:38:50.556Z,22.90
2023-05-10T09:39:56.803Z,18.79
2023-05-10T09:41:00.005Z,21.17
2023-05-10T09:42:11.645Z,21.11
2023-05-10T09:43:15.458Z,21.11
2023-05-10T09:44:22.319Z,19.11
2023-05-10T09:45:27.626Z,21.81
2023-05-10T09:46:30.832Z,19.00
2023-05-10T09:47:37.954Z,18.27
2023-05-10T09:48:47.017Z,21.72
2023-05-10T09:49:54.417Z,20.74
2023-05-10T09:51:00.643Z,21.81
2023-05-10T09:52:09.111Z,20.30
2023-05-10T09:53:17.593Z,20.96
2023-05-10T09:54:20.865Z,20.90
2023-05-10T09:55:47.699Z,23.23
2023-05-10T09:56:51.132Z,23.03
2023-05-10T09:58:02.567Z,23.81
2023-05-10T09:59:07.070Z,23.62
2023-05-10T10:00:14.867Z,25.21
2023-05-10T10:01:18.451Z,23.58
2023-05-10T10:02:21.948Z,25.41
2023-05-10T10:03:26.937Z,23.85
2023-05-10T10:04:31.690Z,22.88
2023-05-10T10:05:37.602Z,22.30
2023-05-10T10:06:42.297Z,22.34
2023-05-10T10:07:45.534Z,23.05
2023-05-10T10:08:48.907Z,24.42
2023-05-10T10:09:52.573Z,23.45
2023-05-10T10:10:56.540Z,21.18
2023-05-10T10:12:01.178Z,24.10
2023-05-10T10:13:04.985Z,22.71
2023-05-10T10:14:08.241Z,22.48
2023-05-10T10:15:14.666Z,20.65
2023-05-10T10:16:20.361Z,22.89
2023-05-10T10:17:23.724Z,23.83
2023-05-10T10:18:28.801Z,24.46
2023-05-10T10:19:35.977Z,21.88
2023-05-10T10:20:39.879Z,22.48
2023-05-10T10:21:43.253Z,23.95
2023-05-10T10:22:47.379Z,21.77
2023-05-10T10:23:50.879Z,21.59
2023-05-10T10:24:56.373Z,21.12
2023-05-10T10:26:01.729Z,21.90
2023-05-10T10:27:28.590Z,24.32
2023-05-10T10:28:50.341Z,23.04
2023-05-10T10:30:38.129Z,26.33
2023-05-10T10:31:52.558Z,23.78
2023-05-10T10:33:28.453Z,26.01
2023-05-10T10:34:33.531Z,24.95
2023-05-10T10:35:38.338Z,29.06
2023-05-10T10:36:49.121Z,27.42
2023-05-10T10:37:53.289Z,27.61
2023-05-10T10:39:01.192Z,27.17
2023-05-10T10:40:27.959Z,26.57
2023-05-10T10:41:42.595Z,25.87
2023-05-10T10:42:51.553Z,27.49
2023-05-10T10:44:32.747Z,24.01
2023-05-10T10:45:35.965Z,28.91
2023-05-10T10:47:16.157Z,31.47
2023-05-10T10:48:24.845Z,29.89
2023-05-10T10:49:29.046Z,31.36
2023-05-10T10:50:32.466Z,30.15
2023-05-10T10:51:40.245Z,29.51
2023-05-10T10:52:45.154Z,33.42
2023-05-10T10:53:50.522Z,35.86
2023-05-10T10:55:16.847Z,34.01
2023-05-10T10:56:25.367Z,26.87
2023-05-10T10:57:31.758Z,28.70
2023-05-10T10:58:36.088Z,27.32
2023-05-10T10:59:47.970Z,29.81
2023-05-10T11:00:51.322Z,36.67
2023-05-10T11:01:54.719Z,45.32
2023-05-10T11:03:20.381Z,40.89
2023-05-10T11:04:23.754Z,38.19
2023-05-10T11:05:38.766Z,40.73
2023-05-10T11:06:42.032Z,36.35
2023-05-10T11:07:59.023Z,35.77
2023-05-10T11:09:13.075Z,35.51
2023-05-10T11:10:22.398Z,33.63
2023-05-10T11:11:26.465Z,30.03
2023-05-10T11:12:31.307Z,28.79
2023-05-10T11:13:41.573Z,30.69
2023-05-10T11:14:44.911Z,29.87
2023-05-10T11:15:52.523Z,28.02
2023-05-10T11:16:55.903Z,30.24
2023-05-10T11:17:59.951Z,29.10
2023-05-10T11:19:05.885Z,30.17
2023-05-10T11:20:11.201Z,34.55
2023-05-10T11:21:17.415Z,37.08
2023-05-10T11:22:20.683Z,33.06
2023-05-10T11:23:24.521Z,33.74
2023-05-10T11:24:29.845Z,32.36
2023-05-10T11:25:33.087Z,34.15
2023-05-10T11:26:37.590Z,32.19
2023-05-10T11:27:41.875Z,30.85
2023-05-10T11:28:52.291Z,32.66
2023-05-10T11:29:55.539Z,28.98
2023-05-10T11:30:59.526Z,27.47
2023-05-10T11:32:02.969Z,28.99
2023-05-10T11:33:08.210Z,26.44
2023-05-10T11:34:11.756Z,26.10
2023-05-10T11:35:15.260Z,21.01
2023-05-10T11:36:21.046Z,21.08
2023-05-10T11:37:24.347Z,20.30
2023-05-10T11:38:27.573Z,18.76
2023-05-10T11:39:33.318Z,18.03
2023-05-10T11:40:37.460Z,14.82
2023-05-10T11:41:42.967Z,17.00
2023-05-10T11:42:47.317Z,19.53
2023-05-10T11:43:55.659Z,17.88
2023-05-10T11:44:58.974Z,15.73
2023-05-10T11:46:02.787Z,19.67
2023-05-10T11:47:07.518Z,16.57
2023-05-10T11:48:11.722Z,17.78
2023-05-10T11:49:15.342Z,16.38
2023-05-10T11:50:19.679Z,15.56
2023-05-10T11:51:24.849Z,18.97
2023-05-10T11:52:28.102Z,18.84
2023-05-10T11:53:35.314Z,17.26
2023-05-10T11:54:38.723Z,15.20
2023-05-10T11:55:41.994Z,16.74
2023-05-10T11:56:45.187Z,18.19
2023-05-10T11:57:49.133Z,16.41
2023-05-10T11:58:59.711Z,16.42
2023-05-10T12:00:05.372Z,19.47
2023-05-10T12:01:12.339Z,16.78
2023-05-10T12:02:16.799Z,18.72
2023-05-10T12:03:20.651Z,25.39
2023-05-10T12:04:24.482Z,21.69
2023-05-10T12:05:28.530Z,19.21
2023-05-10T12:06:42.195Z,17.66
2023-05-10T12:07:45.438Z,17.61
2023-05-10T12:08:54.037Z,19.21
2023-05-10T12:10:16.458Z,17.86
2023-05-10T12:11:20.998Z,19.16
2023-05-10T12:12:24.261Z,15.32
2023-05-10T12:13:27.460Z,16.54
2023-05-10T12:14:35.012Z,16.45
2023-05-10T12:15:38.371Z,15.56
2023-05-10T12:16:42.222Z,17.29
2023-05-10T12:17:46.870Z,17.80
2023-05-10T12:18:54.680Z,19.06
2023-05-10T12:20:15.933Z,17.83
2023-05-10T12:21:21.869Z,16.24
2023-05-10T12:22:25.124Z,17.83
2023-05-10T12:23:28.670Z,17.98
2023-05-10T12:24:31.844Z,16.46
2023-05-10T12:25:37.031Z,18.44
2023-05-10T12:26:40.228Z,17.72
2023-05-10T12:27:51.393Z,18.09
2023-05-10T12:29:14.588Z,18.71
2023-05-10T12:30:25.023Z,17.91
2023-05-10T12:31:28.411Z,18.83
2023-05-10T12:32:42.580Z,16.69
2023-05-10T12:33:47.119Z,15.88
2023-05-10T12:34:50.434Z,19.39
2023-05-10T12:35:56.349Z,18.04
2023-05-10T12:37:00.137Z,17.82
2023-05-10T12:38:23.303Z,18.72
2023-05-10T12:39:26.714Z,16.52
2023-05-10T12:40:30.591Z,16.88
2023-05-10T12:41:33.809Z,15.43
2023-05-10T12:42:37.877Z,16.52
2023-05-10T12:43:42.636Z,18.31
2023-05-10T12:44:45.849Z,18.19
2023-05-10T12:45:50.521Z,15.61
2023-05-10T12:46:53.792Z,16.65
2023-05-10T12:47:57.235Z,14.96
2023-05-10T12:49:08.488Z,17.51
2023-05-10T12:50:13.093Z,17.42
2023-05-10T12:51:18.806Z,15.71
2023-05-10T12:52:22.138Z,14.19
2023-05-10T12:53:25.618Z,16.95
2023-05-10T12:54:29.581Z,16.87
2023-05-10T12:55:33.116Z,17.98
2023-05-10T12:56:36.545Z,15.52
2023-05-10T12:57:39.803Z,14.79
2023-05-10T12:58:43.017Z,16.76
2023-05-10T12:59:46.557Z,17.48
2023-05-10T13:00:49.779Z,16.35
2023-05-10T13:01:53.111Z,16.69
2023-05-10T13:02:56.568Z,16.11
2023-05-10T13:03:59.873Z,15.58
2023-05-10T13:05:03.247Z,18.36
2023-05-10T13:06:07.970Z,19.40
2023-05-10T13:07:11.779Z,20.17
2023-05-10T13:08:15.027Z,15.88
2023-05-10T13:09:18.251Z,14.75
2023-05-10T13:10:21.548Z,17.96
2023-05-10T13:11:25.058Z,16.67
2023-05-10T13:12:28.478Z,17.80
2023-05-10T13:13:31.728Z,16.26
2023-05-10T13:14:35.122Z,18.25
2023-05-10T13:15:38.458Z,17.78
2023-05-10T13:16:41.770Z,18.49
2023-05-10T13:17:46.993Z,17.38
2023-05-10T13:18:50.307Z,17.83
2023-05-10T13:19:53.599Z,18.19
2023-05-10T13:20:57.484Z,18.79
2023-05-10T13:22:00.732Z,19.72
2023-05-10T13:23:04.470Z,19.20
2023-05-10T13:24:07.818Z,18.82
2023-05-10T13:25:11.697Z,18.17
2023-05-10T13:26:15.040Z,17.57
2023-05-10T13:27:18.218Z,15.66
2023-05-10T13:28:21.484Z,17.59
2023-05-10T13:29:24.702Z,17.00
2023-05-10T13:30:27.865Z,16.28
2023-05-10T13:31:31.311Z,18.40
2023-05-10T13:32:35.889Z,19.02
2023-05-10T13:33:39.164Z,18.55
2023-05-10T13:34:42.481Z,16.37
2023-05-10T13:35:46.379Z,19.76
2023-05-10T13:36:50.619Z,19.07
2023-05-10T13:37:55.116Z,19.51
2023-05-10T13:38:58.295Z,17.10
2023-05-10T13:40:01.593Z,16.55
2023-05-10T13:41:04.944Z,18.07
2023-05-10T13:42:08.249Z,19.14
2023-05-10T13:43:11.739Z,17.71
2023-05-10T13:44:16.264Z,16.13
2023-05-10T13:45:19.726Z,20.78
2023-05-10T13:46:23.344Z,18.77
2023-05-10T13:47:26.880Z,17.49
2023-05-10T13:48:30.603Z,18.45
2023-05-10T13:49:34.013Z,19.19
2023-05-10T13:50:37.400Z,20.06
2023-05-10T13:51:40.950Z,16.03
2023-05-10T13:52:44.291Z,19.71
2023-05-10T13:53:48.943Z,17.73
2023-05-10T13:54:53.985Z,15.68
2023-05-10T13:55:57.152Z,16.12
2023-05-10T13:57:00.822Z,16.30
2023-05-10T13:58:04.214Z,18.14
2023-05-10T13:59:07.761Z,18.14
2023-05-10T14:00:11.597Z,17.03
2023-05-10T14:01:14.962Z,20.48
2023-05-10T14:02:18.221Z,17.85
2023-05-10T14:03:21.634Z,17.38
2023-05-10T14:04:25.080Z,17.29
2023-05-10T14:05:28.654Z,17.52
2023-05-10T14:06:32.407Z,19.32